createdAt,value
2022-08-28T00:00:01.811Z,71.05
2022-08-28T00:02:33.662Z,71.87
2022-08-28T00:05:01.638Z,71.51
2022-08-28T00:07:28.161Z,72.22
2022-08-28T00:09:54.754Z,72.48
2022-08-28T00:12:21.673Z,73.15
2022-08-28T00:14:48.122Z,73.70
2022-08-28T00:17:14.662Z,73.91
2022-08-28T00:19:41.391Z,74.60
2022-08-28T00:22:08.148Z,74.67
2022-08-28T00:24:36.085Z,74.50
2022-08-28T00:27:22.196Z,74.42
2022-08-28T00:29:48.750Z,74.10
2022-08-28T00:32:15.285Z,74.53
2022-08-28T00:34:42.115Z,74.66
2022-08-28T00:37:08.592Z,74.82
2022-08-28T00:39:35.078Z,74.27
2022-08-28T00:42:01.729Z,74.04
2022-08-28T00:44:28.958Z,73.98
2022-08-28T00:46:58.028Z,73.73
2022-08-28T00:49:28.438Z,74.01
2022-08-28T00:52:08.660Z,74.05
2022-08-28T00:54:58.350Z,75.00
2022-08-28T00:57:35.038Z,75.16
2022-08-28T01:00:02.296Z,76.09
2022-08-28T01:02:29.294Z,76.23
2022-08-28T01:04:55.933Z,76.90
2022-08-28T01:07:23.194Z,76.47
2022-08-28T01:09:54.017Z,76.10
2022-08-28T01:12:24.405Z,75.20
2022-08-28T01:14:54.547Z,75.13
2022-08-28T01:20:19.458Z,74.83
2022-08-28T01:23:24.977Z,74.55
2022-08-28T01:25:52.445Z,74.48
2022-08-28T01:28:19.135Z,74.44
2022-08-28T01:30:49.398Z,73.86
2022-08-28T01:33:16.376Z,73.51
2022-08-28T01:35:45.946Z,73.27
2022-08-28T01:38:14.266Z,73.33
2022-08-28T01:40:49.666Z,72.91
2022-08-28T01:43:20.297Z,72.82
2022-08-28T01:45:51.903Z,72.25
2022-08-28T01:48:20.165Z,73.64
2022-08-28T01:50:47.984Z,73.75
2022-08-28T01:53:16.382Z,73.11
2022-08-28T01:55:43.480Z,73.21
2022-08-28T01:58:10.867Z,74.53
2022-08-28T02:00:38.770Z,74.79
2022-08-28T02:03:07.063Z,74.93
2022-08-28T02:05:34.551Z,75.50
2022-08-28T02:08:03.390Z,75.47
2022-08-28T02:10:33.404Z,74.92
2022-08-28T02:13:00.497Z,74.91
2022-08-28T02:15:29.438Z,74.36
2022-08-28T02:17:55.969Z,73.70
2022-08-28T02:20:24.225Z,72.88
2022-08-28T02:22:50.957Z,73.18
2022-08-28T02:25:17.938Z,72.93
2022-08-28T02:27:46.000Z,73.28
2022-08-28T02:30:17.107Z,73.48
2022-08-28T02:32:46.033Z,73.18
2022-08-28T02:35:15.275Z,72.57
2022-08-28T02:37:44.200Z,72.29
2022-08-28T02:40:14.268Z,71.98
2022-08-28T02:42:41.917Z,71.82
2022-08-28T02:45:11.743Z,72.15
2022-08-28T02:47:43.581Z,71.93
2022-08-28T02:50:13.069Z,71.69
2022-08-28T02:53:04.831Z,71.70
2022-08-28T02:55:34.218Z,71.67
2022-08-28T02:58:00.889Z,71.91
2022-08-28T03:00:27.311Z,72.06
2022-08-28T03:02:53.913Z,71.94
2022-08-28T03:05:24.538Z,71.90
2022-08-28T03:07:53.346Z,72.01
2022-08-28T03:10:21.697Z,72.33
2022-08-28T03:12:48.333Z,71.99
2022-08-28T03:15:14.881Z,71.97
2022-08-28T03:17:41.432Z,71.32
2022-08-28T03:20:09.951Z,71.08
2022-08-28T03:22:55.060Z,69.75
2022-08-28T03:25:22.878Z,70.72
2022-08-28T03:27:49.962Z,70.83
2022-08-28T03:30:18.137Z,71.25
2022-08-28T03:32:44.584Z,70.29
2022-08-28T03:35:12.015Z,70.70
2022-08-28T03:37:38.664Z,71.18
2022-08-28T03:40:07.489Z,71.38
2022-08-28T03:42:35.094Z,71.08
2022-08-28T03:45:02.071Z,71.03
2022-08-28T03:47:29.701Z,71.59
2022-08-28T03:49:58.051Z,71.38
2022-08-28T03:52:25.164Z,70.86
2022-08-28T03:54:52.681Z,70.91
2022-08-28T03:57:21.575Z,71.06
2022-08-28T03:59:50.019Z,70.67
2022-08-28T04:02:19.239Z,70.54
2022-08-28T04:04:47.186Z,70.42
2022-08-28T04:07:13.666Z,70.32
2022-08-28T04:09:40.227Z,69.83
2022-08-28T04:12:08.241Z,69.88
2022-08-28T04:14:35.197Z,69.78
2022-08-28T04:17:01.846Z,69.69
2022-08-28T04:19:29.638Z,69.83
2022-08-28T04:21:56.053Z,69.79
2022-08-28T04:24:22.567Z,69.31
2022-08-28T04:26:48.977Z,69.76
2022-08-28T04:29:16.017Z,70.18
2022-08-28T04:31:42.825Z,70.53
2022-08-28T04:34:10.398Z,71.36
2022-08-28T04:36:37.933Z,71.83
2022-08-28T04:39:08.490Z,72.21
2022-08-28T04:41:37.506Z,72.65
2022-08-28T04:44:04.746Z,72.65
2022-08-28T04:46:31.986Z,72.89
2022-08-28T04:48:59.271Z,73.14
2022-08-28T04:51:26.341Z,72.90
2022-08-28T04:53:52.813Z,72.19
2022-08-28T04:56:19.257Z,71.73
2022-08-28T04:58:46.589Z,71.95
2022-08-28T05:01:18.741Z,71.86
2022-08-28T05:03:47.001Z,71.80
2022-08-28T05:06:15.697Z,71.86
2022-08-28T05:08:42.545Z,71.45
2022-08-28T05:11:33.215Z,71.16
2022-08-28T05:14:12.662Z,71.56
2022-08-28T05:16:48.020Z,71.25
2022-08-28T05:19:16.050Z,71.07
2022-08-28T05:21:42.624Z,71.26
2022-08-28T05:24:10.266Z,71.06
2022-08-28T05:26:40.016Z,71.60
2022-08-28T05:29:08.095Z,71.54
2022-08-28T05:31:34.952Z,71.25
2022-08-28T05:34:02.245Z,71.22
2022-08-28T05:36:33.152Z,70.84
2022-08-28T05:39:01.488Z,70.94
2022-08-28T05:41:30.236Z,71.30
2022-08-28T05:44:02.045Z,71.10
2022-08-28T05:46:29.374Z,70.97
2022-08-28T05:48:57.141Z,70.81
2022-08-28T05:51:26.498Z,71.20
2022-08-28T05:53:53.858Z,70.78
2022-08-28T05:56:25.018Z,70.38
2022-08-28T05:58:51.518Z,69.93
2022-08-28T06:01:22.101Z,70.03
2022-08-28T06:03:55.128Z,70.30
2022-08-28T06:06:24.614Z,69.74
2022-08-28T06:08:58.392Z,69.91
2022-08-28T06:11:30.353Z,70.63
2022-08-28T06:14:01.682Z,69.90
2022-08-28T06:16:31.069Z,69.30
2022-08-28T06:18:57.637Z,68.73
2022-08-28T06:21:24.726Z,68.56
2022-08-28T06:23:51.709Z,69.15
2022-08-28T06:26:18.271Z,68.87
2022-08-28T06:28:44.808Z,68.65
2022-08-28T06:31:24.411Z,68.97
2022-08-28T06:33:58.134Z,69.69
2022-08-28T06:36:27.430Z,69.63
2022-08-28T06:38:55.511Z,69.66
2022-08-28T06:41:21.930Z,69.95
2022-08-28T06:43:49.309Z,69.61
2022-08-28T06:46:16.528Z,70.50
2022-08-28T06:48:43.254Z,69.97
2022-08-28T06:51:12.146Z,70.25
2022-08-28T06:53:40.016Z,70.34
2022-08-28T06:56:11.191Z,69.84
2022-08-28T06:58:43.064Z,69.67
2022-08-28T07:01:24.455Z,69.86
2022-08-28T07:03:54.326Z,69.92
2022-08-28T07:06:22.775Z,69.96
2022-08-28T07:08:50.231Z,69.28
2022-08-28T07:11:20.880Z,69.17
2022-08-28T07:13:48.710Z,69.21
2022-08-28T07:16:17.905Z,68.96
2022-08-28T07:18:45.505Z,69.64
2022-08-28T07:21:13.562Z,68.95
2022-08-28T07:23:42.358Z,69.30
2022-08-28T07:26:12.309Z,69.33
2022-08-28T07:28:39.389Z,68.84
2022-08-28T07:31:09.905Z,69.91
2022-08-28T07:33:37.739Z,69.76
2022-08-28T07:36:07.145Z,69.50
2022-08-28T07:38:33.875Z,69.28
2022-08-28T07:41:00.428Z,69.52
2022-08-28T07:43:45.403Z,69.73
2022-08-28T07:46:12.331Z,69.93
2022-08-28T07:48:40.962Z,69.17
2022-08-28T07:51:09.522Z,68.96
2022-08-28T07:53:37.348Z,68.92
2022-08-28T07:56:05.350Z,69.01
2022-08-28T07:58:32.052Z,68.67
2022-08-28T08:00:59.189Z,68.59
2022-08-28T08:03:25.806Z,68.25
2022-08-28T08:05:57.856Z,68.03
2022-08-28T08:08:25.038Z,67.98
2022-08-28T08:11:23.719Z,67.98
2022-08-28T08:13:54.073Z,68.29
2022-08-28T08:16:23.308Z,67.93
2022-08-28T08:18:50.939Z,67.71
2022-08-28T08:21:21.409Z,67.75
2022-08-28T08:23:48.407Z,67.41
2022-08-28T08:26:20.822Z,67.46
2022-08-28T08:28:48.052Z,67.31
2022-08-28T08:31:19.956Z,67.14
2022-08-28T08:33:54.028Z,66.41
2022-08-28T08:36:22.845Z,66.37
2022-08-28T08:38:50.569Z,66.00
2022-08-28T08:41:31.798Z,65.14
2022-08-28T08:44:09.499Z,65.47
2022-08-28T08:47:00.883Z,65.31
2022-08-28T08:49:34.450Z,64.69
2022-08-28T08:52:21.453Z,64.63
2022-08-28T08:55:22.113Z,62.73
2022-08-28T08:57:55.463Z,62.07
2022-08-28T09:00:22.277Z,61.22
2022-08-28T09:02:57.234Z,60.11
2022-08-28T09:05:37.794Z,60.07
2022-08-28T09:08:07.041Z,60.62
2022-08-28T09:10:48.229Z,60.29
2022-08-28T09:13:28.224Z,60.36
2022-08-28T09:15:55.053Z,59.82
2022-08-28T09:18:33.155Z,59.08
2022-08-28T09:21:00.628Z,58.82
2022-08-28T09:23:30.064Z,58.52
2022-08-28T09:26:02.621Z,58.60
2022-08-28T09:28:34.244Z,58.48
2022-08-28T09:31:00.694Z,58.48
2022-08-28T09:33:41.651Z,58.70
2022-08-28T09:36:29.947Z,58.39
2022-08-28T09:39:13.120Z,58.63
2022-08-28T09:42:04.731Z,58.22
2022-08-28T09:44:31.335Z,56.15
2022-08-28T09:46:58.237Z,56.18
2022-08-28T09:49:29.991Z,56.21
2022-08-28T09:52:01.834Z,55.36
2022-08-28T09:54:42.209Z,54.11
2022-08-28T09:57:08.730Z,53.35
2022-08-28T09:59:35.197Z,53.69
2022-08-28T10:02:24.451Z,52.73
2022-08-28T10:05:11.652Z,51.69
2022-08-28T10:08:01.185Z,53.23
2022-08-28T10:10:50.853Z,52.13
2022-08-28T10:13:41.787Z,53.04
2022-08-28T10:16:20.420Z,52.87
2022-08-28T10:18:55.174Z,53.19
2022-08-28T10:21:40.946Z,52.27
2022-08-28T10:24:33.823Z,50.44
2022-08-28T10:27:16.833Z,51.17
2022-08-28T10:30:04.278Z,51.44
2022-08-28T10:33:04.032Z,49.11
2022-08-28T10:35:49.078Z,49.77
2022-08-28T10:38:19.835Z,49.38
2022-08-28T10:41:04.244Z,50.54
2022-08-28T10:43:40.057Z,50.24
2022-08-28T10:46:42.463Z,49.85
2022-08-28T10:49:23.963Z,48.51
2022-08-28T10:51:57.125Z,50.09
2022-08-28T10:54:42.387Z,51.32
2022-08-28T10:57:33.173Z,52.50
2022-08-28T11:00:13.564Z,52.30
2022-08-28T11:02:59.326Z,52.81
2022-08-28T11:05:41.110Z,52.35
2022-08-28T11:08:20.048Z,51.27
2022-08-28T11:10:50.397Z,50.91
2022-08-28T11:13:39.031Z,50.54
2022-08-28T11:16:25.218Z,51.60
2022-08-28T11:19:21.088Z,50.96
2022-08-28T11:21:51.321Z,51.10
2022-08-28T11:24:39.662Z,50.94
2022-08-28T11:27:33.072Z,50.24
2022-08-28T11:30:03.316Z,49.74
2022-08-28T11:32:32.702Z,49.30
2022-08-28T11:35:02.768Z,49.36
2022-08-28T11:37:47.833Z,49.19
2022-08-28T11:40:51.670Z,49.23
2022-08-28T11:43:34.595Z,48.76
2022-08-28T11:46:01.070Z,49.77
2022-08-28T11:48:33.283Z,49.71
2022-08-28T11:51:07.867Z,49.00
2022-08-28T11:53:46.130Z,48.41
2022-08-28T11:56:33.147Z,47.12
2022-08-28T11:59:18.157Z,46.92
2022-08-28T12:01:45.355Z,47.03
2022-08-28T12:04:15.539Z,47.28
2022-08-28T12:06:44.697Z,47.23
2022-08-28T12:09:32.476Z,47.73
2022-08-28T12:12:22.090Z,48.09
2022-08-28T12:14:48.433Z,46.77
2022-08-28T12:17:14.788Z,46.66
2022-08-28T12:19:50.024Z,47.92
2022-08-28T12:22:26.501Z,48.17
2022-08-28T12:25:06.178Z,47.93
2022-08-28T12:27:38.449Z,47.95
2022-08-28T12:30:05.775Z,47.16
2022-08-28T12:32:55.932Z,47.97
2022-08-28T12:35:29.895Z,47.25
2022-08-28T12:37:57.321Z,47.86
2022-08-28T12:40:47.418Z,47.76
2022-08-28T12:43:41.610Z,47.11
2022-08-28T12:46:22.885Z,46.91
2022-08-28T12:49:01.893Z,46.73
2022-08-28T12:51:31.437Z,45.22
2022-08-28T12:54:01.356Z,46.08
2022-08-28T12:56:33.428Z,45.66
2022-08-28T12:59:23.040Z,46.33
2022-08-28T13:01:54.290Z,46.21
2022-08-28T13:04:41.125Z,45.71
2022-08-28T13:07:11.871Z,45.43
2022-08-28T13:09:44.955Z,45.21
2022-08-28T13:12:23.879Z,45.49
2022-08-28T13:15:11.358Z,45.32
2022-08-28T13:17:51.192Z,45.98
2022-08-28T13:20:31.194Z,45.76
2022-08-28T13:22:59.023Z,46.60
2022-08-28T13:25:33.371Z,44.84
2022-08-28T13:28:14.507Z,45.19
2022-08-28T13:30:41.212Z,45.04
2022-08-28T13:33:16.622Z,45.57
2022-08-28T13:35:43.646Z,45.22
2022-08-28T13:38:16.779Z,45.01
2022-08-28T13:41:02.749Z,44.63
2022-08-28T13:43:42.166Z,43.90
2022-08-28T13:46:08.705Z,43.43
2022-08-28T13:48:35.177Z,44.04
2022-08-28T13:51:07.537Z,44.21
2022-08-28T13:53:37.376Z,44.08
2022-08-28T13:56:04.174Z,44.48
2022-08-28T13:58:31.061Z,44.80
2022-08-28T14:00:57.953Z,45.26
2022-08-28T14:03:36.502Z,45.61
2022-08-28T14:06:11.509Z,45.90
2022-08-28T14:08:39.745Z,44.87
2022-08-28T14:11:07.184Z,44.80
2022-08-28T14:13:33.716Z,44.69
2022-08-28T14:16:04.545Z,43.84
2022-08-28T14:18:31.362Z,43.66
2022-08-28T14:20:57.853Z,43.99
2022-08-28T14:23:24.404Z,44.08
2022-08-28T14:25:50.904Z,43.86
2022-08-28T14:28:17.626Z,43.56
2022-08-28T14:30:46.621Z,44.21
2022-08-28T14:33:16.650Z,44.48
2022-08-28T14:35:43.291Z,43.87
2022-08-28T14:38:10.839Z,44.15
2022-08-28T14:40:42.721Z,43.92
2022-08-28T14:43:10.808Z,43.94
2022-08-28T14:45:49.357Z,44.07
2022-08-28T14:48:18.150Z,44.61
2022-08-28T14:50:46.852Z,45.10
2022-08-28T14:53:14.796Z,45.71
2022-08-28T14:55:44.169Z,45.31
2022-08-28T14:58:10.800Z,44.85
2022-08-28T15:00:42.643Z,44.84
2022-08-28T15:03:10.915Z,44.32
2022-08-28T15:05:37.691Z,44.57
2022-08-28T15:08:12.118Z,44.86
2022-08-28T15:10:40.520Z,45.00
2022-08-28T15:13:09.923Z,45.27
2022-08-28T15:15:39.498Z,44.39
2022-08-28T15:18:10.367Z,44.58
2022-08-28T15:20:39.236Z,44.65
2022-08-28T15:23:05.859Z,44.28
2022-08-28T15:25:32.331Z,43.96
2022-08-28T15:27:58.753Z,43.94
2022-08-28T15:30:25.298Z,44.36
2022-08-28T15:32:51.773Z,44.12
2022-08-28T15:35:18.492Z,43.74
2022-08-28T15:37:45.011Z,44.04
2022-08-28T15:40:30.514Z,44.25
2022-08-28T15:42:57.103Z,44.14
2022-08-28T15:45:23.706Z,44.16
2022-08-28T15:47:50.273Z,44.21
2022-08-28T15:50:16.832Z,43.45
2022-08-28T15:52:46.492Z,43.12
2022-08-28T15:55:13.181Z,42.88
2022-08-28T15:57:39.686Z,42.96
2022-08-28T16:00:10.316Z,42.53
2022-08-28T16:02:37.192Z,42.24
2022-08-28T16:05:04.170Z,42.88
2022-08-28T16:07:30.619Z,42.97
2022-08-28T16:09:57.186Z,42.77
2022-08-28T16:12:23.931Z,43.10
2022-08-28T16:14:50.435Z,42.79
2022-08-28T16:17:17.009Z,43.09
2022-08-28T16:19:44.003Z,43.12
2022-08-28T16:22:11.668Z,43.47
2022-08-28T16:24:38.256Z,43.35
2022-08-28T16:27:06.489Z,43.29
2022-08-28T16:29:36.910Z,43.38
2022-08-28T16:32:04.342Z,43.51
2022-08-28T16:34:32.308Z,43.35
2022-08-28T16:37:00.040Z,43.25
2022-08-28T16:39:27.041Z,43.34
2022-08-28T16:41:53.458Z,43.15
2022-08-28T16:44:26.186Z,43.37
2022-08-28T16:46:54.175Z,43.57
2022-08-28T16:49:21.561Z,43.20
2022-08-28T16:51:48.039Z,42.97
2022-08-28T16:54:15.361Z,42.83
2022-08-28T16:56:41.930Z,43.15
2022-08-28T16:59:10.392Z,43.34
2022-08-28T17:01:38.020Z,43.82
2022-08-28T17:04:07.623Z,43.37
2022-08-28T17:06:35.382Z,43.61
2022-08-28T17:09:01.944Z,43.54
2022-08-28T17:11:29.548Z,43.52
2022-08-28T17:13:56.690Z,43.80
2022-08-28T17:16:25.432Z,43.39
2022-08-28T17:18:53.087Z,43.64
2022-08-28T17:21:40.341Z,44.01
2022-08-28T17:24:07.561Z,43.44
2022-08-28T17:26:34.150Z,43.91
2022-08-28T17:29:00.666Z,43.55
2022-08-28T17:31:27.330Z,43.57
2022-08-28T17:33:54.301Z,43.68
2022-08-28T17:36:33.585Z,44.04
2022-08-28T17:39:06.006Z,44.12
2022-08-28T17:41:33.361Z,44.39
2022-08-28T17:44:00.820Z,44.36
2022-08-28T17:46:27.518Z,44.19
2022-08-28T17:48:55.868Z,44.44
2022-08-28T17:51:40.469Z,44.74
2022-08-28T17:54:15.543Z,44.66
2022-08-28T17:56:42.381Z,44.99
2022-08-28T17:59:09.999Z,44.96
2022-08-28T18:01:36.504Z,45.30
2022-08-28T18:04:03.755Z,45.78
2022-08-28T18:06:32.098Z,45.36
2022-08-28T18:08:58.766Z,45.26
2022-08-28T18:11:25.699Z,45.28
2022-08-28T18:13:52.206Z,45.41
2022-08-28T18:16:18.910Z,45.66
2022-08-28T18:18:45.356Z,45.75
2022-08-28T18:21:13.405Z,46.62
2022-08-28T18:23:40.520Z,47.28
2022-08-28T18:26:08.270Z,47.90
2022-08-28T18:28:34.735Z,48.48
2022-08-28T18:31:02.393Z,48.66
2022-08-28T18:33:29.649Z,48.69
2022-08-28T18:35:56.789Z,48.97
2022-08-28T18:38:27.742Z,49.31
2022-08-28T18:40:55.401Z,49.49
2022-08-28T18:43:22.484Z,53.29
2022-08-28T18:45:49.233Z,53.61
2022-08-28T18:48:15.689Z,52.97
2022-08-28T18:50:46.273Z,52.60
2022-08-28T18:53:14.368Z,51.86
2022-08-28T18:55:40.941Z,51.68
2022-08-28T18:58:07.404Z,51.64
2022-08-28T19:00:33.993Z,51.66
2022-08-28T19:03:00.656Z,51.89
2022-08-28T19:05:27.577Z,51.79
2022-08-28T19:07:54.397Z,52.06
2022-08-28T19:10:33.302Z,52.35
2022-08-28T19:13:01.514Z,52.19
2022-08-28T19:15:28.364Z,52.12
2022-08-28T19:17:55.094Z,52.04
2022-08-28T19:20:22.241Z,52.23
2022-08-28T19:22:49.595Z,52.70
2022-08-28T19:25:28.884Z,52.82
2022-08-28T19:28:01.340Z,51.97
2022-08-28T19:30:33.478Z,53.22
2022-08-28T19:33:02.363Z,53.94
2022-08-28T19:35:29.019Z,54.06
2022-08-28T19:37:55.587Z,54.01
2022-08-28T19:40:22.834Z,53.96
2022-08-28T19:42:50.069Z,53.23
2022-08-28T19:45:18.343Z,53.32
2022-08-28T19:47:46.773Z,53.70
2022-08-28T19:50:14.436Z,53.87
2022-08-28T19:52:43.222Z,54.44
2022-08-28T19:55:18.242Z,54.68
2022-08-28T19:57:46.778Z,55.03
2022-08-28T20:00:15.304Z,55.19
2022-08-28T20:02:42.130Z,55.61
2022-08-28T20:05:09.379Z,55.79
2022-08-28T20:07:36.093Z,55.98
2022-08-28T20:10:03.699Z,56.04
2022-08-28T20:12:30.150Z,56.02
2022-08-28T20:15:00.127Z,56.60
2022-08-28T20:17:29.681Z,56.54
2022-08-28T20:20:02.224Z,58.11
2022-08-28T20:22:29.563Z,58.51
2022-08-28T20:24:56.123Z,59.33
2022-08-28T20:27:22.579Z,59.33
2022-08-28T20:29:49.033Z,58.73
2022-08-28T20:32:15.616Z,59.32
2022-08-28T20:34:44.507Z,59.43
2022-08-28T20:37:11.346Z,58.94
2022-08-28T20:39:41.392Z,59.23
2022-08-28T20:42:09.412Z,58.50
2022-08-28T20:44:36.421Z,58.88
2022-08-28T20:47:02.933Z,57.41
2022-08-28T20:49:29.393Z,58.19
2022-08-28T20:52:00.935Z,58.35
2022-08-28T20:54:31.164Z,58.46
2022-08-28T20:57:02.358Z,58.89
2022-08-28T20:59:35.568Z,58.86
2022-08-28T21:02:16.939Z,59.43
2022-08-28T21:04:45.464Z,59.78
2022-08-28T21:07:15.101Z,60.85
2022-08-28T21:10:03.948Z,61.49
2022-08-28T21:12:28.231Z,61.09
2022-08-28T21:14:54.771Z,61.64
2022-08-28T21:17:28.827Z,61.94
2022-08-28T21:19:57.384Z,61.85
2022-08-28T21:22:23.825Z,61.72
2022-08-28T21:24:50.328Z,61.70
2022-08-28T21:27:18.540Z,61.26
2022-08-28T21:29:45.899Z,61.91
2022-08-28T21:32:12.554Z,62.26
2022-08-28T21:34:39.021Z,62.89
2022-08-28T21:37:06.317Z,63.92
2022-08-28T21:39:33.508Z,63.52
2022-08-28T21:42:00.223Z,63.18
2022-08-28T21:44:26.702Z,63.43
2022-08-28T21:46:53.215Z,64.17
2022-08-28T21:49:20.304Z,63.95
2022-08-28T21:51:47.046Z,64.49
2022-08-28T21:54:13.583Z,63.31
2022-08-28T21:56:40.459Z,63.50
2022-08-28T21:59:07.070Z,63.69
2022-08-28T22:01:33.596Z,63.73
2022-08-28T22:04:00.158Z,63.78
2022-08-28T22:06:26.819Z,63.58
2022-08-28T22:08:54.634Z,63.20
2022-08-28T22:11:24.905Z,63.21
2022-08-28T22:13:51.744Z,63.39
2022-08-28T22:16:18.364Z,63.41
2022-08-28T22:18:44.958Z,63.72
2022-08-28T22:21:36.982Z,63.71
2022-08-28T22:24:04.416Z,63.86
2022-08-28T22:26:30.925Z,63.58
2022-08-28T22:28:57.784Z,63.76
2022-08-28T22:31:24.581Z,63.02
2022-08-28T22:33:52.079Z,62.80
2022-08-28T22:36:19.927Z,63.09
2022-08-28T22:38:53.181Z,63.39
2022-08-28T22:41:20.570Z,63.54
2022-08-28T22:43:48.236Z,63.89
2022-08-28T22:46:16.808Z,63.72
2022-08-28T22:48:43.422Z,64.21
2022-08-28T22:51:15.369Z,64.96
2022-08-28T22:53:43.625Z,64.55
2022-08-28T22:56:12.156Z,64.53
2022-08-28T22:58:39.691Z,64.53
2022-08-28T23:01:12.243Z,64.71
2022-08-28T23:03:38.872Z,64.15
2022-08-28T23:06:05.955Z,64.29
2022-08-28T23:08:34.209Z,64.36
2022-08-28T23:11:01.210Z,64.01
2022-08-28T23:13:28.154Z,63.76
2022-08-28T23:15:54.599Z,63.30
2022-08-28T23:18:21.230Z,62.51
2022-08-28T23:20:50.577Z,62.94
2022-08-28T23:23:18.736Z,62.65
2022-08-28T23:25:45.655Z,63.62
2022-08-28T23:28:12.444Z,63.65
2022-08-28T23:30:41.173Z,63.27
2022-08-28T23:33:10.548Z,63.49
2022-08-28T23:35:38.321Z,63.36
2022-08-28T23:38:12.343Z,63.88
2022-08-28T23:40:39.661Z,63.53
2022-08-28T23:43:06.785Z,63.37
2022-08-28T23:45:33.738Z,63.41
2022-08-28T23:48:00.300Z,63.34
2022-08-28T23:50:27.114Z,62.65
2022-08-28T23:52:53.721Z,62.71
2022-08-28T23:55:20.830Z,62.44
2022-08-28T23:57:47.504Z,62.39
